Ransom Canyon, Texas
Current Conditions -  °F | °C
As of 12:00 PM on Thursday 29 Jan 2015 (Local Time) from KLBB Reporting Station
Overcast Overcast  
Wind Chill: 53°   Ceiling: 18000
Heat Index: 53°   Visibility: 10mi
Dew Point: 29°   Wind: 22mph
Humidity: 40%   Direction: 40°NE
Pressure: 30.44"   Gusts: 31mph
Location:  33.53°N, 101.68°W
Report Text: KLBB 291800Z 04019G27KT 10SM SCT150 OVC180 12/M02 A3044 RMK AO2 PK WND 03027/1755 T01171017
Loading
Personal Weather Stations






























Interactive Weather Map New forecast layout! Learn more

10-Day Weather Forecast

Advertisements
Track Severe Weather on mobile